sensor_id;sensor_type;location;lat;lon;timestamp;P1;durP1;ratioP1;P2;durP2;ratioP2
4001;SDS011;2015;48.670;9.060;2023-01-01T00:01:33;152.97;;;102.13;;
4001;SDS011;2015;48.670;9.060;2023-01-01T00:04:11;163.27;;;101.97;;
4001;SDS011;2015;48.670;9.060;2023-01-01T00:06:45;174.13;;;104.03;;
4001;SDS011;2015;48.670;9.060;2023-01-01T00:09:17;103.53;;;70.30;;
4001;SDS011;2015;48.670;9.060;2023-01-01T00:12:07;128.53;;;80.40;;
4001;SDS011;2015;48.670;9.060;2023-01-01T00:14:39;130.87;;;85.30;;
4001;SDS011;2015;48.670;9.060;2023-01-01T00:17:13;118.33;;;78.07;;
4001;SDS011;2015;48.670;9.060;2023-01-01T00:19:44;102.87;;;65.37;;
4001;SDS011;2015;48.670;9.060;2023-01-01T00:22:16;90.43;;;59.50;;
4001;SDS011;2015;48.670;9.060;2023-01-01T00:25:09;79.85;;;51.42;;
4001;SDS011;2015;48.670;9.060;2023-01-01T00:27:45;67.43;;;45.90;;
4001;SDS011;2015;48.670;9.060;2023-01-01T00:30:17;63.43;;;39.77;;
4001;SDS011;2015;48.670;9.060;2023-01-01T00:32:49;46.23;;;31.03;;
4001;SDS011;2015;48.670;9.060;2023-01-01T00:35:26;35.77;;;27.60;;
4001;SDS011;2015;48.670;9.060;2023-01-01T00:37:58;34.17;;;25.30;;
4001;SDS011;2015;48.670;9.060;2023-01-01T00:40:29;33.63;;;23.07;;
4001;SDS011;2015;48.670;9.060;2023-01-01T00:43:01;36.93;;;22.37;;
4001;SDS011;2015;48.670;9.060;2023-01-01T00:45:33;28.23;;;19.90;;
4001;SDS011;2015;48.670;9.060;2023-01-01T00:48:05;30.80;;;21.23;;
4001;SDS011;2015;48.670;9.060;2023-01-01T00:50:37;28.40;;;22.10;;
4001;SDS011;2015;48.670;9.060;2023-01-01T00:53:09;32.87;;;21.63;;
4001;SDS011;2015;48.670;9.060;2023-01-01T00:55:40;34.60;;;20.77;;
4001;SDS011;2015;48.670;9.060;2023-01-01T00:58:13;27.07;;;22.03;;
4001;SDS011;2015;48.670;9.060;2023-01-01T01:00:45;28.37;;;19.97;;
4001;SDS011;2015;48.670;9.060;2023-01-01T01:03:17;29.73;;;20.60;;
4001;SDS011;2015;48.670;9.060;2023-01-01T01:06:05;31.33;;;21.97;;
4001;SDS011;2015;48.670;9.060;2023-01-01T01:08:41;33.23;;;24.40;;
4001;SDS011;2015;48.670;9.060;2023-01-01T01:11:16;29.17;;;20.67;;
4001;SDS011;2015;48.670;9.060;2023-01-01T01:13:54;26.93;;;20.10;;
4001;SDS011;2015;48.670;9.060;2023-01-01T01:16:35;33.13;;;20.33;;
4001;SDS011;2015;48.670;9.060;2023-01-01T01:19:07;28.00;;;21.17;;
4001;SDS011;2015;48.670;9.060;2023-01-01T01:21:44;25.53;;;18.77;;
4001;SDS011;2015;48.670;9.060;2023-01-01T01:24:17;29.23;;;21.30;;
4001;SDS011;2015;48.670;9.060;2023-01-01T01:26:49;30.07;;;20.60;;
4001;SDS011;2015;48.670;9.060;2023-01-01T01:29:20;34.90;;;22.57;;
4001;SDS011;2015;48.670;9.060;2023-01-01T01:31:52;26.77;;;18.73;;
4001;SDS011;2015;48.670;9.060;2023-01-01T01:34:24;30.77;;;20.53;;
4001;SDS011;2015;48.670;9.060;2023-01-01T01:36:58;31.87;;;22.30;;
4001;SDS011;2015;48.670;9.060;2023-01-01T01:39:30;33.80;;;23.10;;
4001;SDS011;2015;48.670;9.060;2023-01-01T01:42:02;34.23;;;21.73;;
4001;SDS011;2015;48.670;9.060;2023-01-01T01:47:33;32.37;;;21.13;;
4001;SDS011;2015;48.670;9.060;2023-01-01T01:55:44;36.00;;;22.17;;
4001;SDS011;2015;48.670;9.060;2023-01-01T01:58:22;31.80;;;20.87;;
4001;SDS011;2015;48.670;9.060;2023-01-01T02:00:56;38.20;;;25.87;;
4001;SDS011;2015;48.670;9.060;2023-01-01T02:03:30;39.43;;;25.00;;
4001;SDS011;2015;48.670;9.060;2023-01-01T02:06:10;33.33;;;23.27;;
4001;SDS011;2015;48.670;9.060;2023-01-01T02:08:42;30.33;;;20.20;;
4001;SDS011;2015;48.670;9.060;2023-01-01T02:11:13;29.23;;;18.77;;
4001;SDS011;2015;48.670;9.060;2023-01-01T02:13:52;26.20;;;19.13;;
4001;SDS011;2015;48.670;9.060;2023-01-01T02:19:42;31.70;;;19.40;;
4001;SDS011;2015;48.670;9.060;2023-01-01T02:28:15;33.17;;;18.47;;
4001;SDS011;2015;48.670;9.060;2023-01-01T02:30:54;24.23;;;16.30;;
4001;SDS011;2015;48.670;9.060;2023-01-01T02:33:28;27.63;;;15.40;;
4001;SDS011;2015;48.670;9.060;2023-01-01T02:36:01;29.50;;;16.93;;
4001;SDS011;2015;48.670;9.060;2023-01-01T02:41:13;23.90;;;15.30;;
4001;SDS011;2015;48.670;9.060;2023-01-01T02:43:50;20.57;;;14.10;;
4001;SDS011;2015;48.670;9.060;2023-01-01T02:46:22;16.97;;;11.97;;
4001;SDS011;2015;48.670;9.060;2023-01-01T02:48:53;16.47;;;13.50;;
4001;SDS011;2015;48.670;9.060;2023-01-01T02:51:28;21.40;;;13.87;;
4001;SDS011;2015;48.670;9.060;2023-01-01T02:54:16;18.70;;;13.30;;
4001;SDS011;2015;48.670;9.060;2023-01-01T02:57:19;21.90;;;12.73;;
4001;SDS011;2015;48.670;9.060;2023-01-01T03:11:15;13.87;;;11.40;;
4001;SDS011;2015;48.670;9.060;2023-01-01T03:16:45;19.50;;;14.30;;
4001;SDS011;2015;48.670;9.060;2023-01-01T03:19:22;20.20;;;13.80;;
4001;SDS011;2015;48.670;9.060;2023-01-01T03:22:06;19.80;;;12.37;;
4001;SDS011;2015;48.670;9.060;2023-01-01T03:24:53;20.93;;;13.87;;
4001;SDS011;2015;48.670;9.060;2023-01-01T03:27:33;19.40;;;13.13;;
4001;SDS011;2015;48.670;9.060;2023-01-01T03:30:10;19.40;;;13.10;;
4001;SDS011;2015;48.670;9.060;2023-01-01T03:32:44;17.33;;;12.60;;
4001;SDS011;2015;48.670;9.060;2023-01-01T03:38:30;19.77;;;12.97;;
4001;SDS011;2015;48.670;9.060;2023-01-01T03:41:10;11.53;;;9.17;;
4001;SDS011;2015;48.670;9.060;2023-01-01T03:46:59;14.03;;;11.20;;
4001;SDS011;2015;48.670;9.060;2023-01-01T03:49:31;17.37;;;11.83;;
4001;SDS011;2015;48.670;9.060;2023-01-01T04:00:45;16.40;;;11.27;;
4001;SDS011;2015;48.670;9.060;2023-01-01T04:03:24;13.75;;;9.90;;
4001;SDS011;2015;48.670;9.060;2023-01-01T04:05:58;15.23;;;10.10;;
4001;SDS011;2015;48.670;9.060;2023-01-01T04:08:33;13.70;;;11.13;;
4001;SDS011;2015;48.670;9.060;2023-01-01T04:11:07;15.53;;;11.00;;
4001;SDS011;2015;48.670;9.060;2023-01-01T04:14:05;19.33;;;11.47;;
4001;SDS011;2015;48.670;9.060;2023-01-01T04:16:37;11.20;;;9.97;;
4001;SDS011;2015;48.670;9.060;2023-01-01T04:19:09;13.63;;;9.50;;
4001;SDS011;2015;48.670;9.060;2023-01-01T04:21:40;13.27;;;9.70;;
4001;SDS011;2015;48.670;9.060;2023-01-01T04:24:12;16.07;;;9.83;;
4001;SDS011;2015;48.670;9.060;2023-01-01T04:26:45;10.73;;;9.57;;
4001;SDS011;2015;48.670;9.060;2023-01-01T04:29:17;17.27;;;10.00;;
4001;SDS011;2015;48.670;9.060;2023-01-01T04:31:50;13.97;;;10.17;;
4001;SDS011;2015;48.670;9.060;2023-01-01T04:34:21;9.97;;;8.97;;
4001;SDS011;2015;48.670;9.060;2023-01-01T04:36:53;10.33;;;9.27;;
4001;SDS011;2015;48.670;9.060;2023-01-01T04:39:25;11.23;;;9.03;;
4001;SDS011;2015;48.670;9.060;2023-01-01T04:41:56;14.60;;;10.40;;
4001;SDS011;2015;48.670;9.060;2023-01-01T04:44:28;15.20;;;10.33;;
4001;SDS011;2015;48.670;9.060;2023-01-01T04:47:00;13.73;;;8.93;;
4001;SDS011;2015;48.670;9.060;2023-01-01T04:49:32;12.13;;;8.80;;
4001;SDS011;2015;48.670;9.060;2023-01-01T04:52:03;12.80;;;7.97;;
4001;SDS011;2015;48.670;9.060;2023-01-01T04:54:35;9.90;;;8.70;;
4001;SDS011;2015;48.670;9.060;2023-01-01T04:57:07;10.60;;;8.27;;
4001;SDS011;2015;48.670;9.060;2023-01-01T04:59:39;11.47;;;8.03;;
4001;SDS011;2015;48.670;9.060;2023-01-01T05:02:11;14.13;;;7.40;;
4001;SDS011;2015;48.670;9.060;2023-01-01T05:04:43;11.60;;;8.30;;
4001;SDS011;2015;48.670;9.060;2023-01-01T05:07:15;8.63;;;7.63;;
4001;SDS011;2015;48.670;9.060;2023-01-01T05:09:46;11.73;;;9.50;;
4001;SDS011;2015;48.670;9.060;2023-01-01T05:12:18;13.10;;;8.70;;
4001;SDS011;2015;48.670;9.060;2023-01-01T05:14:50;9.57;;;7.70;;
4001;SDS011;2015;48.670;9.060;2023-01-01T05:17:22;10.07;;;7.97;;
4001;SDS011;2015;48.670;9.060;2023-01-01T05:19:53;10.17;;;8.37;;
4001;SDS011;2015;48.670;9.060;2023-01-01T05:22:25;8.70;;;7.80;;
4001;SDS011;2015;48.670;9.060;2023-01-01T05:24:57;12.90;;;8.73;;
4001;SDS011;2015;48.670;9.060;2023-01-01T05:27:29;9.57;;;8.43;;
4001;SDS011;2015;48.670;9.060;2023-01-01T05:30:01;8.87;;;7.97;;
4001;SDS011;2015;48.670;9.060;2023-01-01T05:32:32;10.17;;;8.90;;
4001;SDS011;2015;48.670;9.060;2023-01-01T05:35:06;8.73;;;7.37;;
4001;SDS011;2015;48.670;9.060;2023-01-01T05:37:38;8.67;;;7.87;;
4001;SDS011;2015;48.670;9.060;2023-01-01T05:40:10;9.10;;;7.43;;
4001;SDS011;2015;48.670;9.060;2023-01-01T05:42:42;12.00;;;8.27;;
4001;SDS011;2015;48.670;9.060;2023-01-01T05:45:17;13.63;;;8.60;;
4001;SDS011;2015;48.670;9.060;2023-01-01T05:47:49;8.50;;;7.60;;
4001;SDS011;2015;48.670;9.060;2023-01-01T05:50:21;9.77;;;6.90;;
4001;SDS011;2015;48.670;9.060;2023-01-01T05:52:52;10.65;;;7.95;;
4001;SDS011;2015;48.670;9.060;2023-01-01T05:55:24;9.30;;;7.67;;
4001;SDS011;2015;48.670;9.060;2023-01-01T05:57:56;10.20;;;8.40;;
4001;SDS011;2015;48.670;9.060;2023-01-01T06:00:27;10.40;;;8.10;;
4001;SDS011;2015;48.670;9.060;2023-01-01T06:02:59;9.23;;;7.63;;
4001;SDS011;2015;48.670;9.060;2023-01-01T06:05:31;10.97;;;7.20;;
4001;SDS011;2015;48.670;9.060;2023-01-01T06:08:05;11.03;;;8.40;;
4001;SDS011;2015;48.670;9.060;2023-01-01T06:10:37;12.10;;;7.43;;
4001;SDS011;2015;48.670;9.060;2023-01-01T06:13:09;12.70;;;7.73;;
4001;SDS011;2015;48.670;9.060;2023-01-01T06:15:43;10.00;;;7.87;;
4001;SDS011;2015;48.670;9.060;2023-01-01T06:18:30;9.37;;;7.40;;
4001;SDS011;2015;48.670;9.060;2023-01-01T06:21:13;10.30;;;8.13;;
4001;SDS011;2015;48.670;9.060;2023-01-01T06:23:47;13.97;;;7.20;;
4001;SDS011;2015;48.670;9.060;2023-01-01T06:26:20;7.80;;;7.20;;
4001;SDS011;2015;48.670;9.060;2023-01-01T06:28:57;8.40;;;7.00;;
4001;SDS011;2015;48.670;9.060;2023-01-01T06:31:30;9.30;;;7.43;;
4001;SDS011;2015;48.670;9.060;2023-01-01T06:34:10;9.60;;;6.83;;
4001;SDS011;2015;48.670;9.060;2023-01-01T06:36:42;8.87;;;7.13;;
4001;SDS011;2015;48.670;9.060;2023-01-01T06:39:14;7.90;;;6.87;;
4001;SDS011;2015;48.670;9.060;2023-01-01T06:41:45;11.07;;;7.70;;
4001;SDS011;2015;48.670;9.060;2023-01-01T06:44:17;8.17;;;7.43;;
4001;SDS011;2015;48.670;9.060;2023-01-01T06:46:49;11.00;;;7.93;;
4001;SDS011;2015;48.670;9.060;2023-01-01T06:49:20;10.23;;;7.82;;
4001;SDS011;2015;48.670;9.060;2023-01-01T06:51:52;8.43;;;7.17;;
4001;SDS011;2015;48.670;9.060;2023-01-01T06:54:24;7.90;;;7.07;;
4001;SDS011;2015;48.670;9.060;2023-01-01T06:56:56;10.23;;;6.57;;
4001;SDS011;2015;48.670;9.060;2023-01-01T06:59:28;8.17;;;7.43;;
4001;SDS011;2015;48.670;9.060;2023-01-01T07:01:59;9.60;;;7.00;;
4001;SDS011;2015;48.670;9.060;2023-01-01T07:04:31;7.57;;;6.83;;
4001;SDS011;2015;48.670;9.060;2023-01-01T07:07:03;12.63;;;7.83;;
4001;SDS011;2015;48.670;9.060;2023-01-01T07:09:35;6.40;;;5.90;;
4001;SDS011;2015;48.670;9.060;2023-01-01T07:12:07;7.23;;;6.53;;
4001;SDS011;2015;48.670;9.060;2023-01-01T07:14:39;7.67;;;6.30;;
4001;SDS011;2015;48.670;9.060;2023-01-01T07:17:11;8.20;;;6.30;;
4001;SDS011;2015;48.670;9.060;2023-01-01T07:19:42;8.65;;;6.75;;
4001;SDS011;2015;48.670;9.060;2023-01-01T07:22:14;9.07;;;7.07;;
4001;SDS011;2015;48.670;9.060;2023-01-01T07:24:46;7.40;;;6.57;;
4001;SDS011;2015;48.670;9.060;2023-01-01T07:27:19;7.93;;;7.13;;
4001;SDS011;2015;48.670;9.060;2023-01-01T07:29:50;6.93;;;6.27;;
4001;SDS011;2015;48.670;9.060;2023-01-01T07:32:22;7.50;;;6.10;;
4001;SDS011;2015;48.670;9.060;2023-01-01T07:34:54;9.07;;;6.80;;
4001;SDS011;2015;48.670;9.060;2023-01-01T07:37:26;6.57;;;6.00;;
4001;SDS011;2015;48.670;9.060;2023-01-01T07:39:58;7.70;;;6.73;;
4001;SDS011;2015;48.670;9.060;2023-01-01T07:42:29;9.43;;;6.53;;
4001;SDS011;2015;48.670;9.060;2023-01-01T07:45:01;7.37;;;6.30;;
4001;SDS011;2015;48.670;9.060;2023-01-01T07:47:33;10.13;;;5.23;;
4001;SDS011;2015;48.670;9.060;2023-01-01T07:50:05;7.00;;;6.30;;
4001;SDS011;2015;48.670;9.060;2023-01-01T07:52:37;7.00;;;6.30;;
4001;SDS011;2015;48.670;9.060;2023-01-01T07:55:12;6.50;;;5.77;;
4001;SDS011;2015;48.670;9.060;2023-01-01T07:57:46;7.53;;;6.63;;
4001;SDS011;2015;48.670;9.060;2023-01-01T08:00:18;8.90;;;6.10;;
4001;SDS011;2015;48.670;9.060;2023-01-01T08:02:52;8.20;;;6.10;;
4001;SDS011;2015;48.670;9.060;2023-01-01T08:05:24;6.47;;;5.60;;
4001;SDS011;2015;48.670;9.060;2023-01-01T08:07:57;6.43;;;5.77;;
4001;SDS011;2015;48.670;9.060;2023-01-01T08:10:29;7.00;;;6.07;;
4001;SDS011;2015;48.670;9.060;2023-01-01T08:13:02;9.23;;;6.87;;
4001;SDS011;2015;48.670;9.060;2023-01-01T08:15:35;6.67;;;6.10;;
4001;SDS011;2015;48.670;9.060;2023-01-01T08:18:08;10.20;;;5.93;;
4001;SDS011;2015;48.670;9.060;2023-01-01T08:20:39;6.60;;;6.10;;
4001;SDS011;2015;48.670;9.060;2023-01-01T08:23:11;8.13;;;6.73;;
4001;SDS011;2015;48.670;9.060;2023-01-01T08:25:43;7.50;;;6.53;;
4001;SDS011;2015;48.670;9.060;2023-01-01T08:28:15;7.27;;;6.37;;
4001;SDS011;2015;48.670;9.060;2023-01-01T08:30:46;8.47;;;6.47;;
4001;SDS011;2015;48.670;9.060;2023-01-01T08:33:18;6.90;;;6.30;;
4001;SDS011;2015;48.670;9.060;2023-01-01T08:35:50;9.43;;;5.90;;
4001;SDS011;2015;48.670;9.060;2023-01-01T08:38:25;7.25;;;6.05;;
4001;SDS011;2015;48.670;9.060;2023-01-01T08:40:57;9.20;;;7.17;;
4001;SDS011;2015;48.670;9.060;2023-01-01T08:43:29;8.40;;;6.53;;
4001;SDS011;2015;48.670;9.060;2023-01-01T08:46:00;6.60;;;6.00;;
4001;SDS011;2015;48.670;9.060;2023-01-01T08:48:32;6.83;;;6.00;;
4001;SDS011;2015;48.670;9.060;2023-01-01T08:51:04;12.60;;;6.70;;
4001;SDS011;2015;48.670;9.060;2023-01-01T08:53:36;7.80;;;7.20;;
4001;SDS011;2015;48.670;9.060;2023-01-01T08:56:08;8.67;;;6.80;;
4001;SDS011;2015;48.670;9.060;2023-01-01T08:58:41;10.03;;;6.40;;
4001;SDS011;2015;48.670;9.060;2023-01-01T09:01:13;6.13;;;5.57;;
4001;SDS011;2015;48.670;9.060;2023-01-01T09:03:45;7.50;;;5.63;;
4001;SDS011;2015;48.670;9.060;2023-01-01T09:06:18;6.23;;;5.63;;
4001;SDS011;2015;48.670;9.060;2023-01-01T09:08:50;7.17;;;5.10;;
4001;SDS011;2015;48.670;9.060;2023-01-01T09:11:25;7.10;;;5.13;;
4001;SDS011;2015;48.670;9.060;2023-01-01T09:13:58;5.60;;;5.17;;
4001;SDS011;2015;48.670;9.060;2023-01-01T09:16:30;5.10;;;4.60;;
4001;SDS011;2015;48.670;9.060;2023-01-01T09:19:02;6.73;;;6.07;;
4001;SDS011;2015;48.670;9.060;2023-01-01T09:21:34;5.47;;;5.07;;
4001;SDS011;2015;48.670;9.060;2023-01-01T09:24:06;5.80;;;5.30;;
4001;SDS011;2015;48.670;9.060;2023-01-01T09:26:38;7.77;;;5.63;;
4001;SDS011;2015;48.670;9.060;2023-01-01T09:29:10;5.30;;;4.77;;
4001;SDS011;2015;48.670;9.060;2023-01-01T09:31:42;5.10;;;4.70;;
4001;SDS011;2015;48.670;9.060;2023-01-01T09:34:14;4.90;;;4.50;;
4001;SDS011;2015;48.670;9.060;2023-01-01T09:36:46;5.37;;;4.97;;
4001;SDS011;2015;48.670;9.060;2023-01-01T09:39:18;5.77;;;5.20;;
4001;SDS011;2015;48.670;9.060;2023-01-01T09:44:28;5.90;;;5.40;;
4001;SDS011;2015;48.670;9.060;2023-01-01T09:50:12;5.10;;;4.70;;
4001;SDS011;2015;48.670;9.060;2023-01-01T09:52:48;5.93;;;5.40;;
4001;SDS011;2015;48.670;9.060;2023-01-01T09:55:28;6.53;;;6.03;;
4001;SDS011;2015;48.670;9.060;2023-01-01T09:58:13;5.33;;;4.87;;
4001;SDS011;2015;48.670;9.060;2023-01-01T10:00:46;5.43;;;5.13;;
4001;SDS011;2015;48.670;9.060;2023-01-01T10:08:58;10.10;;;6.00;;
4001;SDS011;2015;48.670;9.060;2023-01-01T10:14:45;5.53;;;5.10;;
4001;SDS011;2015;48.670;9.060;2023-01-01T10:17:48;6.40;;;5.77;;
4001;SDS011;2015;48.670;9.060;2023-01-01T10:20:36;6.10;;;5.60;;
4001;SDS011;2015;48.670;9.060;2023-01-01T10:25:48;5.57;;;5.17;;
4001;SDS011;2015;48.670;9.060;2023-01-01T10:28:22;6.20;;;5.65;;
4001;SDS011;2015;48.670;9.060;2023-01-01T10:31:33;7.37;;;5.47;;
4001;SDS011;2015;48.670;9.060;2023-01-01T10:36:56;6.67;;;6.03;;
4001;SDS011;2015;48.670;9.060;2023-01-01T10:39:30;5.10;;;4.80;;
4001;SDS011;2015;48.670;9.060;2023-01-01T10:42:02;5.63;;;5.13;;
4001;SDS011;2015;48.670;9.060;2023-01-01T10:44:34;9.23;;;6.00;;
4001;SDS011;2015;48.670;9.060;2023-01-01T10:52:37;6.03;;;5.37;;
4001;SDS011;2015;48.670;9.060;2023-01-01T10:55:20;5.33;;;4.93;;
4001;SDS011;2015;48.670;9.060;2023-01-01T10:57:55;5.20;;;4.60;;
4001;SDS011;2015;48.670;9.060;2023-01-01T11:00:28;5.40;;;5.00;;
4001;SDS011;2015;48.670;9.060;2023-01-01T11:06:00;7.07;;;4.67;;
4001;SDS011;2015;48.670;9.060;2023-01-01T11:09:03;5.70;;;5.10;;
4001;SDS011;2015;48.670;9.060;2023-01-01T11:11:47;3.77;;;3.57;;
4001;SDS011;2015;48.670;9.060;2023-01-01T11:14:40;11.67;;;5.27;;
4001;SDS011;2015;48.670;9.060;2023-01-01T11:17:21;7.17;;;5.63;;
4001;SDS011;2015;48.670;9.060;2023-01-01T11:19:58;4.53;;;3.83;;
4001;SDS011;2015;48.670;9.060;2023-01-01T11:25:33;6.87;;;5.37;;
4001;SDS011;2015;48.670;9.060;2023-01-01T11:28:19;5.20;;;4.80;;
4001;SDS011;2015;48.670;9.060;2023-01-01T11:33:34;8.97;;;6.03;;
4001;SDS011;2015;48.670;9.060;2023-01-01T11:36:19;8.43;;;5.43;;
4001;SDS011;2015;48.670;9.060;2023-01-01T11:39:03;4.93;;;4.23;;
4001;SDS011;2015;48.670;9.060;2023-01-01T11:41:46;7.57;;;4.93;;
4001;SDS011;2015;48.670;9.060;2023-01-01T11:52:45;4.90;;;4.33;;
4001;SDS011;2015;48.670;9.060;2023-01-01T11:55:21;4.87;;;4.37;;
4001;SDS011;2015;48.670;9.060;2023-01-01T11:58:17;5.00;;;4.50;;
4001;SDS011;2015;48.670;9.060;2023-01-01T12:00:55;5.83;;;4.33;;
4001;SDS011;2015;48.670;9.060;2023-01-01T12:03:32;4.93;;;4.53;;
4001;SDS011;2015;48.670;9.060;2023-01-01T12:06:26;4.10;;;3.73;;
4001;SDS011;2015;48.670;9.060;2023-01-01T12:12:09;4.93;;;4.43;;
4001;SDS011;2015;48.670;9.060;2023-01-01T12:17:32;6.53;;;4.30;;
4001;SDS011;2015;48.670;9.060;2023-01-01T12:20:15;4.40;;;3.97;;
4001;SDS011;2015;48.670;9.060;2023-01-01T12:22:53;7.17;;;5.13;;
4001;SDS011;2015;48.670;9.060;2023-01-01T12:25:30;6.93;;;3.60;;
4001;SDS011;2015;48.670;9.060;2023-01-01T12:45:31;6.70;;;3.93;;
4001;SDS011;2015;48.670;9.060;2023-01-01T12:48:29;4.37;;;4.07;;
4001;SDS011;2015;48.670;9.060;2023-01-01T12:51:39;4.87;;;4.20;;
4001;SDS011;2015;48.670;9.060;2023-01-01T12:54:35;4.10;;;3.80;;
4001;SDS011;2015;48.670;9.060;2023-01-01T13:00:15;7.03;;;4.10;;
4001;SDS011;2015;48.670;9.060;2023-01-01T13:02:50;4.20;;;3.90;;
4001;SDS011;2015;48.670;9.060;2023-01-01T13:05:47;4.10;;;3.77;;
4001;SDS011;2015;48.670;9.060;2023-01-01T13:08:20;4.03;;;3.53;;
4001;SDS011;2015;48.670;9.060;2023-01-01T13:10:52;8.97;;;4.90;;
4001;SDS011;2015;48.670;9.060;2023-01-01T13:13:26;4.63;;;4.20;;
4001;SDS011;2015;48.670;9.060;2023-01-01T13:15:58;5.50;;;5.07;;
4001;SDS011;2015;48.670;9.060;2023-01-01T13:18:31;4.53;;;4.13;;
4001;SDS011;2015;48.670;9.060;2023-01-01T13:21:25;4.40;;;4.00;;
4001;SDS011;2015;48.670;9.060;2023-01-01T13:23:59;4.10;;;3.70;;
4001;SDS011;2015;48.670;9.060;2023-01-01T13:26:34;4.97;;;4.33;;
4001;SDS011;2015;48.670;9.060;2023-01-01T13:42:39;5.77;;;3.63;;
4001;SDS011;2015;48.670;9.060;2023-01-01T13:45:24;3.83;;;3.50;;
4001;SDS011;2015;48.670;9.060;2023-01-01T13:51:40;5.40;;;3.53;;
4001;SDS011;2015;48.670;9.060;2023-01-01T14:02:53;6.30;;;4.27;;
4001;SDS011;2015;48.670;9.060;2023-01-01T14:11:17;7.53;;;4.37;;
4001;SDS011;2015;48.670;9.060;2023-01-01T14:13:50;7.10;;;4.30;;
4001;SDS011;2015;48.670;9.060;2023-01-01T14:16:23;5.80;;;4.47;;
4001;SDS011;2015;48.670;9.060;2023-01-01T14:18:57;5.20;;;4.80;;
4001;SDS011;2015;48.670;9.060;2023-01-01T14:21:30;11.43;;;4.93;;
4001;SDS011;2015;48.670;9.060;2023-01-01T14:24:04;7.13;;;6.10;;
4001;SDS011;2015;48.670;9.060;2023-01-01T14:26:38;8.13;;;4.67;;
4001;SDS011;2015;48.670;9.060;2023-01-01T14:29:22;7.50;;;4.43;;
4001;SDS011;2015;48.670;9.060;2023-01-01T14:31:57;4.37;;;3.37;;
4001;SDS011;2015;48.670;9.060;2023-01-01T14:34:32;4.30;;;3.90;;
4001;SDS011;2015;48.670;9.060;2023-01-01T14:37:18;7.17;;;4.90;;
4001;SDS011;2015;48.670;9.060;2023-01-01T14:42:45;6.23;;;3.90;;
4001;SDS011;2015;48.670;9.060;2023-01-01T14:45:19;6.03;;;4.30;;
4001;SDS011;2015;48.670;9.060;2023-01-01T14:47:51;4.80;;;4.00;;
4001;SDS011;2015;48.670;9.060;2023-01-01T14:50:29;4.40;;;3.97;;
4001;SDS011;2015;48.670;9.060;2023-01-01T14:53:03;8.40;;;3.80;;
4001;SDS011;2015;48.670;9.060;2023-01-01T14:55:40;6.50;;;4.30;;
4001;SDS011;2015;48.670;9.060;2023-01-01T14:58:17;5.93;;;4.10;;
4001;SDS011;2015;48.670;9.060;2023-01-01T15:00:52;5.80;;;3.90;;
4001;SDS011;2015;48.670;9.060;2023-01-01T15:06:27;5.27;;;4.87;;
4001;SDS011;2015;48.670;9.060;2023-01-01T15:09:00;5.17;;;4.77;;
4001;SDS011;2015;48.670;9.060;2023-01-01T15:11:32;5.20;;;4.80;;
4001;SDS011;2015;48.670;9.060;2023-01-01T15:14:04;5.03;;;4.67;;
4001;SDS011;2015;48.670;9.060;2023-01-01T15:16:35;7.70;;;4.40;;
4001;SDS011;2015;48.670;9.060;2023-01-01T15:19:17;10.10;;;4.60;;
4001;SDS011;2015;48.670;9.060;2023-01-01T15:21:49;6.70;;;4.50;;
4001;SDS011;2015;48.670;9.060;2023-01-01T15:24:21;6.80;;;4.80;;
4001;SDS011;2015;48.670;9.060;2023-01-01T15:26:58;7.97;;;5.27;;
4001;SDS011;2015;48.670;9.060;2023-01-01T15:29:32;4.63;;;4.20;;
4001;SDS011;2015;48.670;9.060;2023-01-01T15:32:06;7.00;;;4.90;;
4001;SDS011;2015;48.670;9.060;2023-01-01T15:34:47;8.87;;;5.20;;
4001;SDS011;2015;48.670;9.060;2023-01-01T15:37:29;6.37;;;5.77;;
4001;SDS011;2015;48.670;9.060;2023-01-01T15:42:46;6.57;;;5.93;;
4001;SDS011;2015;48.670;9.060;2023-01-01T15:45:38;9.80;;;5.63;;
4001;SDS011;2015;48.670;9.060;2023-01-01T15:48:19;6.23;;;5.13;;
4001;SDS011;2015;48.670;9.060;2023-01-01T15:53:58;6.77;;;6.07;;
4001;SDS011;2015;48.670;9.060;2023-01-01T15:56:32;6.30;;;5.70;;
4001;SDS011;2015;48.670;9.060;2023-01-01T15:59:17;14.10;;;6.70;;
4001;SDS011;2015;48.670;9.060;2023-01-01T16:04:48;8.83;;;6.20;;
4001;SDS011;2015;48.670;9.060;2023-01-01T16:07:21;7.67;;;6.67;;
4001;SDS011;2015;48.670;9.060;2023-01-01T16:09:55;6.60;;;5.90;;
4001;SDS011;2015;48.670;9.060;2023-01-01T16:12:28;11.03;;;8.37;;
4001;SDS011;2015;48.670;9.060;2023-01-01T16:15:00;8.40;;;6.90;;
4001;SDS011;2015;48.670;9.060;2023-01-01T16:17:32;9.40;;;5.90;;
4001;SDS011;2015;48.670;9.060;2023-01-01T16:20:04;6.70;;;6.20;;
4001;SDS011;2015;48.670;9.060;2023-01-01T16:22:36;8.27;;;7.40;;
4001;SDS011;2015;48.670;9.060;2023-01-01T16:25:12;18.30;;;8.20;;
4001;SDS011;2015;48.670;9.060;2023-01-01T16:27:48;10.20;;;7.13;;
4001;SDS011;2015;48.670;9.060;2023-01-01T16:30:20;7.13;;;6.43;;
4001;SDS011;2015;48.670;9.060;2023-01-01T16:32:57;6.00;;;5.60;;
4001;SDS011;2015;48.670;9.060;2023-01-01T16:35:29;8.13;;;7.43;;
4001;SDS011;2015;48.670;9.060;2023-01-01T16:38:01;7.90;;;7.10;;
4001;SDS011;2015;48.670;9.060;2023-01-01T16:40:32;9.40;;;7.23;;
4001;SDS011;2015;48.670;9.060;2023-01-01T16:43:13;12.73;;;10.10;;
4001;SDS011;2015;48.670;9.060;2023-01-01T16:45:46;21.47;;;10.30;;
4001;SDS011;2015;48.670;9.060;2023-01-01T16:48:18;13.60;;;10.60;;
4001;SDS011;2015;48.670;9.060;2023-01-01T16:50:50;18.38;;;12.60;;
4001;SDS011;2015;48.670;9.060;2023-01-01T16:53:22;16.33;;;13.20;;
4001;SDS011;2015;48.670;9.060;2023-01-01T16:55:54;29.77;;;23.17;;
4001;SDS011;2015;48.670;9.060;2023-01-01T16:58:25;51.80;;;33.40;;
4001;SDS011;2015;48.670;9.060;2023-01-01T17:01:17;35.33;;;25.03;;
4001;SDS011;2015;48.670;9.060;2023-01-01T17:03:49;32.80;;;24.97;;
4001;SDS011;2015;48.670;9.060;2023-01-01T17:06:21;27.47;;;20.50;;
4001;SDS011;2015;48.670;9.060;2023-01-01T17:08:53;10.63;;;9.30;;
4001;SDS011;2015;48.670;9.060;2023-01-01T17:11:25;11.33;;;8.50;;
4001;SDS011;2015;48.670;9.060;2023-01-01T17:13:56;9.30;;;8.37;;
4001;SDS011;2015;48.670;9.060;2023-01-01T17:16:32;12.33;;;8.67;;
4001;SDS011;2015;48.670;9.060;2023-01-01T17:19:10;8.87;;;8.07;;
4001;SDS011;2015;48.670;9.060;2023-01-01T17:21:48;8.33;;;7.53;;
4001;SDS011;2015;48.670;9.060;2023-01-01T17:24:20;13.60;;;8.83;;
4001;SDS011;2015;48.670;9.060;2023-01-01T17:26:52;8.30;;;7.50;;
4001;SDS011;2015;48.670;9.060;2023-01-01T17:29:24;10.23;;;7.60;;
4001;SDS011;2015;48.670;9.060;2023-01-01T17:31:56;12.87;;;7.00;;
4001;SDS011;2015;48.670;9.060;2023-01-01T17:34:28;8.93;;;7.70;;
4001;SDS011;2015;48.670;9.060;2023-01-01T17:37:00;7.93;;;6.10;;
4001;SDS011;2015;48.670;9.060;2023-01-01T17:39:32;10.17;;;6.07;;
4001;SDS011;2015;48.670;9.060;2023-01-01T17:42:03;5.93;;;5.40;;
4001;SDS011;2015;48.670;9.060;2023-01-01T17:44:35;5.30;;;5.00;;
4001;SDS011;2015;48.670;9.060;2023-01-01T17:47:07;6.50;;;4.83;;
4001;SDS011;2015;48.670;9.060;2023-01-01T17:49:40;7.73;;;5.57;;
4001;SDS011;2015;48.670;9.060;2023-01-01T17:52:12;4.73;;;4.43;;
4001;SDS011;2015;48.670;9.060;2023-01-01T17:54:44;5.13;;;4.63;;
4001;SDS011;2015;48.670;9.060;2023-01-01T17:57:16;4.47;;;4.10;;
4001;SDS011;2015;48.670;9.060;2023-01-01T17:59:49;8.83;;;7.20;;
4001;SDS011;2015;48.670;9.060;2023-01-01T18:02:21;5.10;;;4.67;;
4001;SDS011;2015;48.670;9.060;2023-01-01T18:04:53;11.27;;;5.90;;
4001;SDS011;2015;48.670;9.060;2023-01-01T18:07:24;6.63;;;6.03;;
4001;SDS011;2015;48.670;9.060;2023-01-01T18:09:56;8.50;;;5.93;;
4001;SDS011;2015;48.670;9.060;2023-01-01T18:12:28;13.27;;;6.47;;
4001;SDS011;2015;48.670;9.060;2023-01-01T18:15:00;6.20;;;5.60;;
4001;SDS011;2015;48.670;9.060;2023-01-01T18:17:31;7.23;;;6.60;;
4001;SDS011;2015;48.670;9.060;2023-01-01T18:20:03;9.17;;;5.33;;
4001;SDS011;2015;48.670;9.060;2023-01-01T18:22:35;8.03;;;6.03;;
4001;SDS011;2015;48.670;9.060;2023-01-01T18:25:13;8.07;;;5.87;;
4001;SDS011;2015;48.670;9.060;2023-01-01T18:27:45;6.93;;;5.73;;
4001;SDS011;2015;48.670;9.060;2023-01-01T18:30:22;12.80;;;8.43;;
4001;SDS011;2015;48.670;9.060;2023-01-01T18:32:55;12.93;;;9.10;;
4001;SDS011;2015;48.670;9.060;2023-01-01T18:35:26;7.73;;;6.80;;
4001;SDS011;2015;48.670;9.060;2023-01-01T18:37:58;8.83;;;6.53;;